Time;durP1;ratioP1;P1;durP2;ratioP2;P2;SDS_P1;SDS_P2;PMS_P1;PMS_P2;Temp;Humidity;BMP_temperature;BMP_pressure;BME280_temperature;BME280_humidity;BME280_pressure;Samples;Min_cycle;Max_cycle;Signal;HPM_P1;HPM_P2
2021/07/30 00:01:50;;;;;;;5.17;2.63;;;21.70;67.80;;;;;;5109770;27;20465;-66
2021/07/30 00:04:17;;;;;;;7.73;6.60;;;21.60;68.00;;;;;;5110371;27;21019;-66
2021/07/30 00:06:44;;;;;;;11.07;7.70;;;21.60;68.40;;;;;;5111052;27;20477;-67
2021/07/30 00:09:12;;;;;;;17.97;16.20;;;21.60;69.60;;;;;;5111070;27;20498;-67
2021/07/30 00:11:39;;;;;;;14.90;13.43;;;21.60;69.50;;;;;;5111606;27;20456;-66
2021/07/30 00:14:06;;;;;;;27.10;24.30;;;21.60;69.50;;;;;;5109938;27;20464;-67
2021/07/30 00:16:34;;;;;;;28.17;24.00;;;21.60;69.50;;;;;;5112662;27;20460;-66
2021/07/30 00:19:01;;;;;;;14.13;12.67;;;21.70;69.50;;;;;;5109899;27;20526;-67
2021/07/30 00:21:28;;;;;;;8.57;7.70;;;21.70;69.50;;;;;;5110276;27;20513;-66
2021/07/30 00:23:55;;;;;;;7.90;3.87;;;21.80;69.10;;;;;;5100520;27;20888;-67
2021/07/30 00:26:22;;;;;;;9.87;8.97;;;21.70;68.70;;;;;;5108778;27;20460;-66
2021/07/30 00:28:49;;;;;;;8.40;4.53;;;21.70;69.00;;;;;;5108516;27;20521;-67
2021/07/30 00:31:16;;;;;;;8.80;7.40;;;21.70;69.50;;;;;;5111520;27;20471;-66
2021/07/30 00:33:44;;;;;;;21.43;16.67;;;21.60;68.60;;;;;;5112112;28;20522;-65
2021/07/30 00:36:11;;;;;;;12.10;10.23;;;21.60;68.90;;;;;;5109639;27;21089;-64
2021/07/30 00:38:38;;;;;;;9.33;8.43;;;21.60;68.70;;;;;;5110847;27;20476;-65
2021/07/30 00:41:05;;;;;;;10.03;8.77;;;21.60;68.60;;;;;;5107195;27;20465;-65
2021/07/30 00:43:32;;;;;;;21.10;18.90;;;21.60;68.70;;;;;;5110527;27;20525;-65
2021/07/30 00:46:00;;;;;;;9.80;8.80;;;21.60;69.10;;;;;;5111658;27;20464;-64
2021/07/30 00:48:29;;;;;;;14.77;7.57;;;21.60;69.00;;;;;;5112034;27;20529;-65
2021/07/30 00:50:58;;;;;;;6.20;5.03;;;21.60;68.80;;;;;;5109167;27;20507;-67
2021/07/30 00:53:26;;;;;;;16.20;14.50;;;21.50;68.50;;;;;;5101145;27;20850;-66
2021/07/30 00:55:57;;;;;;;12.87;11.17;;;21.50;68.70;;;;;;5108690;27;20518;-66
2021/07/30 00:58:25;;;;;;;11.37;10.00;;;21.50;68.90;;;;;;5112929;27;20529;-65
2021/07/30 01:00:52;;;;;;;8.00;7.20;;;21.50;68.90;;;;;;5111966;28;20552;-65
2021/07/30 01:03:19;;;;;;;6.43;4.67;;;21.50;68.90;;;;;;5114181;28;20876;-66
2021/07/30 01:05:47;;;;;;;3.33;3.03;;;21.40;68.60;;;;;;5113441;28;20468;-66
2021/07/30 01:08:15;;;;;;;2.50;2.17;;;21.40;68.50;;;;;;5113709;28;20453;-65
2021/07/30 01:10:42;;;;;;;6.87;2.90;;;21.30;69.40;;;;;;5114605;27;20864;-66
2021/07/30 01:13:09;;;;;;;2.27;2.07;;;21.20;68.50;;;;;;5115384;28;20529;-66
2021/07/30 01:15:36;;;;;;;2.23;1.90;;;21.20;68.70;;;;;;5116136;27;20525;-66
2021/07/30 01:18:02;;;;;;;2.90;2.37;;;21.10;68.90;;;;;;5115744;28;20480;-65
2021/07/30 01:20:30;;;;;;;2.80;2.30;;;21.00;69.10;;;;;;5116178;27;20464;-65
2021/07/30 01:22:59;;;;;;;2.57;2.37;;;21.00;69.20;;;;;;5115567;28;20513;-65
2021/07/30 01:25:28;;;;;;;2.40;1.93;;;20.90;69.10;;;;;;5116031;28;20534;-66
2021/07/30 01:27:57;;;;;;;7.53;2.50;;;20.80;69.20;;;;;;5115347;28;20544;-66
2021/07/30 01:30:25;;;;;;;6.03;2.83;;;20.70;69.40;;;;;;5116071;28;20464;-66
2021/07/30 01:32:52;;;;;;;3.33;2.67;;;20.70;69.80;;;;;;5115511;28;20460;-67
2021/07/30 01:35:20;;;;;;;3.50;2.53;;;20.60;69.80;;;;;;5115958;28;20494;-66
2021/07/30 01:37:49;;;;;;;2.43;2.23;;;20.60;70.30;;;;;;5115742;28;20465;-66
2021/07/30 01:40:21;;;;;;;2.37;2.10;;;20.60;70.20;;;;;;5115431;27;20460;-66
2021/07/30 01:42:48;;;;;;;5.40;2.83;;;20.50;70.20;;;;;;5115686;28;20533;-66
2021/07/30 01:45:15;;;;;;;4.20;3.00;;;20.50;70.60;;;;;;5115284;27;20460;-66
2021/07/30 01:47:42;;;;;;;3.57;2.23;;;20.40;70.70;;;;;;5115305;28;20471;-66
2021/07/30 01:50:10;;;;;;;3.97;2.43;;;20.40;70.80;;;;;;5115034;28;20464;-66
2021/07/30 01:52:37;;;;;;;2.63;2.13;;;20.30;71.00;;;;;;5115584;27;20481;-66
2021/07/30 01:55:05;;;;;;;2.93;2.30;;;20.30;71.00;;;;;;5115012;28;20513;-66
2021/07/30 01:57:33;;;;;;;2.40;2.10;;;20.30;71.30;;;;;;5115287;27;20460;-66
2021/07/30 02:00:00;;;;;;;3.60;2.87;;;20.30;71.50;;;;;;5115022;27;20465;-66
2021/07/30 02:02:32;;;;;;;2.40;2.20;;;20.20;71.70;;;;;;5115231;28;20860;-66
2021/07/30 02:04:58;;;;;;;4.27;1.97;;;20.20;71.90;;;;;;5114732;28;20472;-66
2021/07/30 02:07:25;;;;;;;4.80;2.23;;;20.20;72.10;;;;;;5114630;27;20832;-66
2021/07/30 02:09:52;;;;;;;4.10;2.33;;;20.20;72.10;;;;;;5115184;28;20908;-67
2021/07/30 02:12:19;;;;;;;4.23;2.37;;;20.20;72.20;;;;;;5114587;28;20477;-67
2021/07/30 02:14:46;;;;;;;2.90;2.67;;;20.20;72.30;;;;;;5115118;28;20469;-67
2021/07/30 02:17:13;;;;;;;1.90;1.80;;;20.20;72.50;;;;;;5114216;28;20472;-66
2021/07/30 02:19:40;;;;;;;2.63;2.43;;;20.20;72.60;;;;;;5114879;28;20498;-67
2021/07/30 02:22:07;;;;;;;3.17;2.07;;;20.20;72.90;;;;;;5114296;28;20469;-66
2021/07/30 02:24:34;;;;;;;10.03;2.90;;;20.10;72.90;;;;;;5114640;28;20848;-66
2021/07/30 02:27:01;;;;;;;3.83;2.67;;;20.10;73.20;;;;;;5114368;28;20465;-66
2021/07/30 02:29:28;;;;;;;5.23;2.50;;;20.10;73.60;;;;;;5114691;28;20456;-66
2021/07/30 02:31:56;;;;;;;3.20;2.67;;;20.00;73.60;;;;;;5114824;27;20521;-66
2021/07/30 02:34:24;;;;;;;8.90;3.70;;;20.00;73.60;;;;;;5114435;28;21268;-66
2021/07/30 02:36:51;;;;;;;6.57;2.70;;;20.00;73.70;;;;;;5114512;28;20761;-66
2021/07/30 02:39:18;;;;;;;8.53;2.90;;;20.00;73.90;;;;;;5114058;27;20468;-66
2021/07/30 02:41:45;;;;;;;3.20;2.20;;;20.00;74.00;;;;;;5114670;27;20472;-66
2021/07/30 02:44:12;;;;;;;3.00;2.70;;;20.00;74.10;;;;;;5114196;28;20464;-66
2021/07/30 02:46:38;;;;;;;2.47;2.10;;;20.00;74.30;;;;;;5114356;28;20468;-66
2021/07/30 02:49:07;;;;;;;3.53;2.50;;;20.00;74.40;;;;;;5113991;28;20520;-66
2021/07/30 02:51:34;;;;;;;2.53;2.20;;;19.90;74.50;;;;;;5114244;28;20547;-65
2021/07/30 02:54:00;;;;;;;4.93;2.80;;;19.90;74.70;;;;;;5113570;27;20472;-66
2021/07/30 02:56:27;;;;;;;3.57;2.60;;;19.90;74.80;;;;;;5114436;28;20452;-66
2021/07/30 02:58:54;;;;;;;6.97;2.57;;;19.90;75.00;;;;;;5114073;28;20473;-66
2021/07/30 03:01:21;;;;;;;3.37;2.77;;;19.90;75.00;;;;;;5113829;28;20467;-66
2021/07/30 03:03:48;;;;;;;3.03;2.83;;;19.80;75.20;;;;;;5114214;28;20464;-66
2021/07/30 03:06:16;;;;;;;3.47;2.70;;;19.80;75.30;;;;;;5113673;28;20548;-66
2021/07/30 03:08:43;;;;;;;3.63;2.80;;;19.80;75.50;;;;;;5113876;27;20482;-66
2021/07/30 03:11:10;;;;;;;3.43;2.23;;;19.80;75.70;;;;;;5113499;28;20464;-66
2021/07/30 03:13:37;;;;;;;2.87;2.23;;;19.70;75.80;;;;;;5113959;28;20794;-66
2021/07/30 03:16:04;;;;;;;2.87;2.67;;;19.70;75.90;;;;;;5113413;28;20526;-66
2021/07/30 03:18:32;;;;;;;2.80;2.60;;;19.70;76.10;;;;;;5113159;28;20507;-66
2021/07/30 03:20:59;;;;;;;3.77;2.33;;;19.70;76.20;;;;;;5113747;28;20471;-66
2021/07/30 03:23:28;;;;;;;2.93;2.30;;;19.70;76.30;;;;;;5113316;28;20460;-66
2021/07/30 03:25:55;;;;;;;4.20;2.50;;;19.70;76.50;;;;;;5113618;28;20955;-66
2021/07/30 03:28:22;;;;;;;2.60;2.40;;;19.70;76.50;;;;;;5112958;27;20472;-66
2021/07/30 03:30:49;;;;;;;4.03;2.40;;;19.70;76.70;;;;;;5113532;28;20521;-66
2021/07/30 03:33:16;;;;;;;3.00;2.60;;;19.70;77.00;;;;;;5113140;28;20480;-66
2021/07/30 03:35:43;;;;;;;3.03;2.47;;;19.70;77.00;;;;;;5113486;28;20456;-66
2021/07/30 03:38:09;;;;;;;3.83;3.03;;;19.70;77.20;;;;;;5113012;28;20469;-66
2021/07/30 03:40:38;;;;;;;4.07;2.43;;;19.70;77.30;;;;;;5113434;28;21042;-66
2021/07/30 03:43:05;;;;;;;5.83;2.97;;;19.70;77.30;;;;;;5112975;28;20460;-66
2021/07/30 03:45:31;;;;;;;5.00;2.80;;;19.70;77.40;;;;;;5113492;28;20522;-66
2021/07/30 03:47:58;;;;;;;4.40;2.53;;;19.70;77.70;;;;;;5112947;28;20468;-66
2021/07/30 03:50:25;;;;;;;4.93;3.00;;;19.70;77.70;;;;;;5113080;28;20457;-66
2021/07/30 03:52:52;;;;;;;2.83;2.30;;;19.70;78.60;;;;;;5113425;28;20840;-66
2021/07/30 03:55:19;;;;;;;2.70;2.23;;;19.70;77.80;;;;;;5112810;28;20471;-66
2021/07/30 03:57:48;;;;;;;2.70;2.50;;;19.70;77.90;;;;;;5113248;28;20472;-66
2021/07/30 04:00:15;;;;;;;6.90;2.70;;;19.70;78.00;;;;;;5112706;28;20465;-66
2021/07/30 04:02:42;;;;;;;2.80;2.50;;;19.70;78.40;;;;;;5113232;28;20464;-66
2021/07/30 04:05:10;;;;;;;3.77;3.37;;;19.80;78.20;;;;;;5113818;27;20472;-66
2021/07/30 04:07:37;;;;;;;3.87;2.40;;;19.80;78.20;;;;;;5132665;27;20475;-66
2021/07/30 04:10:04;;;;;;;4.43;2.53;;;19.80;78.30;;;;;;5132528;27;20563;-66
2021/07/30 04:12:31;;;;;;;4.20;2.77;;;19.80;78.40;;;;;;5132498;27;20494;-66
2021/07/30 04:14:59;;;;;;;3.13;2.90;;;19.70;78.60;;;;;;5132768;27;20459;-66
2021/07/30 04:17:26;;;;;;;4.03;2.90;;;19.80;78.80;;;;;;5132295;27;20463;-66
2021/07/30 04:19:53;;;;;;;2.70;2.50;;;19.70;78.80;;;;;;5133648;27;20471;-66
2021/07/30 04:22:20;;;;;;;2.90;2.70;;;19.70;78.90;;;;;;5133143;27;20535;-66
2021/07/30 04:24:47;;;;;;;5.47;3.00;;;19.70;79.20;;;;;;5133567;27;20468;-67
2021/07/30 04:27:14;;;;;;;3.90;3.50;;;19.70;79.50;;;;;;5133088;27;20474;-66
2021/07/30 04:29:42;;;;;;;3.90;2.60;;;19.70;79.50;;;;;;5135620;27;20851;-66
2021/07/30 04:32:12;;;;;;;3.17;2.67;;;19.70;79.60;;;;;;5137081;27;20464;-65
2021/07/30 04:34:40;;;;;;;4.80;3.03;;;19.70;80.10;;;;;;5137754;27;20451;-66
2021/07/30 04:37:07;;;;;;;3.23;2.40;;;19.70;80.00;;;;;;5137328;27;20471;-66
2021/07/30 04:39:34;;;;;;;3.00;2.60;;;19.70;79.90;;;;;;5137151;27;20455;-66
2021/07/30 04:42:01;;;;;;;4.03;2.97;;;19.70;79.90;;;;;;5137572;27;20961;-65
2021/07/30 04:44:28;;;;;;;2.90;2.50;;;19.70;80.00;;;;;;5136856;27;20467;-66
2021/07/30 04:46:55;;;;;;;9.43;3.67;;;19.70;80.00;;;;;;5137330;27;20468;-66
2021/07/30 04:49:23;;;;;;;3.50;3.03;;;19.70;80.30;;;;;;5136806;27;20519;-66
2021/07/30 04:51:50;;;;;;;3.00;2.30;;;19.70;80.40;;;;;;5137202;27;20471;-66
2021/07/30 04:54:17;;;;;;;5.73;3.00;;;19.80;80.60;;;;;;5136850;27;20804;-66
2021/07/30 04:56:44;;;;;;;4.90;3.37;;;19.80;80.60;;;;;;5137310;27;20467;-66
2021/07/30 04:59:11;;;;;;;5.80;2.93;;;19.80;80.80;;;;;;5127389;27;20480;-66
2021/07/30 05:01:42;;;;;;;5.90;2.40;;;19.80;80.80;;;;;;5116347;27;20953;-66
2021/07/30 05:04:09;;;;;;;3.20;2.63;;;19.80;80.80;;;;;;5115514;27;20643;-66
2021/07/30 05:06:38;;;;;;;5.63;2.67;;;19.90;80.90;;;;;;5115738;27;20460;-66
2021/07/30 05:09:05;;;;;;;2.80;2.60;;;19.90;80.90;;;;;;5115911;27;20498;-66
2021/07/30 05:11:32;;;;;;;4.10;2.63;;;19.90;80.90;;;;;;5115736;27;20502;-66
2021/07/30 05:13:59;;;;;;;3.37;2.67;;;20.00;81.00;;;;;;5115971;27;20483;-66
2021/07/30 05:16:26;;;;;;;4.27;3.00;;;20.00;81.10;;;;;;5114022;27;20468;-66
2021/07/30 05:18:52;;;;;;;3.57;3.13;;;20.00;81.40;;;;;;5115853;28;20498;-66
2021/07/30 05:21:20;;;;;;;3.50;2.67;;;20.00;81.30;;;;;;5112228;27;20779;-66
2021/07/30 05:23:48;;;;;;;3.90;2.67;;;20.00;81.20;;;;;;5115924;28;20528;-66
2021/07/30 05:26:15;;;;;;;3.60;3.20;;;20.10;81.20;;;;;;5103750;28;20480;-66
2021/07/30 05:28:42;;;;;;;4.67;3.40;;;20.10;81.20;;;;;;5108980;28;20458;-66
2021/07/30 05:31:15;;;;;;;6.53;3.40;;;20.20;81.30;;;;;;5107584;28;20962;-66
2021/07/30 05:33:41;;;;;;;4.07;2.73;;;20.20;81.10;;;;;;5106377;28;20532;-66
2021/07/30 05:36:08;;;;;;;5.50;3.30;;;20.30;81.20;;;;;;5102393;28;20556;-66
2021/07/30 05:38:35;;;;;;;4.43;2.93;;;20.30;81.40;;;;;;5114186;27;20856;-66
2021/07/30 05:41:04;;;;;;;3.80;3.50;;;20.30;81.40;;;;;;5114703;28;20464;-66
2021/07/30 05:43:32;;;;;;;6.07;4.03;;;20.40;81.50;;;;;;5101602;27;20472;-66
2021/07/30 05:46:01;;;;;;;3.10;2.80;;;20.40;81.50;;;;;;5102012;27;20465;-66
2021/07/30 05:48:28;;;;;;;3.60;3.00;;;20.40;81.50;;;;;;5101376;28;20942;-66
2021/07/30 05:50:55;;;;;;;4.73;3.13;;;20.50;81.50;;;;;;5115315;27;20540;-66
2021/07/30 05:53:23;;;;;;;2.73;2.50;;;20.50;81.60;;;;;;5101880;28;20464;-66
2021/07/30 05:55:50;;;;;;;4.70;3.50;;;20.50;81.50;;;;;;5101751;28;20542;-66
2021/07/30 05:58:18;;;;;;;3.70;2.60;;;20.50;81.40;;;;;;5107626;28;20465;-66
2021/07/30 06:00:45;;;;;;;4.63;3.37;;;20.60;81.60;;;;;;5108014;28;21591;-66
2021/07/30 06:03:12;;;;;;;3.57;3.23;;;20.60;81.60;;;;;;5102923;27;20464;-66
2021/07/30 06:05:39;;;;;;;2.53;2.40;;;20.70;81.60;;;;;;5105789;27;20465;-66
2021/07/30 06:08:06;;;;;;;3.40;2.70;;;20.80;81.50;;;;;;5111148;28;20473;-66
2021/07/30 06:10:34;;;;;;;3.80;2.63;;;20.80;81.40;;;;;;5104856;27;20473;-66
2021/07/30 06:13:01;;;;;;;4.10;2.37;;;20.90;81.40;;;;;;5109421;27;20481;-66
2021/07/30 06:15:29;;;;;;;5.00;3.13;;;20.90;81.30;;;;;;5114424;27;20477;-66
2021/07/30 06:17:56;;;;;;;3.90;3.57;;;21.00;81.20;;;;;;5100983;28;20950;-66
2021/07/30 06:20:24;;;;;;;2.90;2.20;;;21.10;81.20;;;;;;5103262;28;20499;-66
2021/07/30 06:22:51;;;;;;;4.70;3.63;;;21.20;81.30;;;;;;5107937;28;20540;-66
2021/07/30 06:25:18;;;;;;;3.70;3.30;;;21.20;81.00;;;;;;5105908;28;20469;-66
2021/07/30 06:27:45;;;;;;;4.37;2.80;;;21.30;81.00;;;;;;5100591;28;20480;-66
2021/07/30 06:30:13;;;;;;;4.03;2.90;;;21.40;81.00;;;;;;5102728;28;20466;-66
2021/07/30 06:32:42;;;;;;;4.23;3.07;;;21.50;80.80;;;;;;5107582;28;21008;-66
2021/07/30 06:35:13;;;;;;;5.70;3.97;;;21.50;80.60;;;;;;5106432;27;20958;-66
2021/07/30 06:37:40;;;;;;;5.70;3.30;;;21.70;80.10;;;;;;5100292;28;20465;-66
2021/07/30 06:40:08;;;;;;;5.67;3.67;;;21.70;80.10;;;;;;5101602;27;20819;-66
2021/07/30 06:42:35;;;;;;;4.57;2.87;;;21.80;79.80;;;;;;5107096;28;20461;-66
2021/07/30 06:45:03;;;;;;;12.60;3.77;;;21.90;79.60;;;;;;5107576;28;20472;-66
2021/07/30 06:47:30;;;;;;;5.33;3.60;;;21.90;79.20;;;;;;5100240;28;20469;-66
2021/07/30 06:49:58;;;;;;;3.13;2.77;;;22.00;79.00;;;;;;5114056;28;20525;-66
2021/07/30 06:52:25;;;;;;;7.10;3.60;;;22.10;78.80;;;;;;5100496;28;20461;-65
2021/07/30 06:54:54;;;;;;;5.60;2.97;;;22.20;78.90;;;;;;5100528;28;20464;-66
2021/07/30 06:57:21;;;;;;;5.77;3.80;;;22.40;78.60;;;;;;5114235;27;20461;-66
2021/07/30 06:59:49;;;;;;;4.37;3.30;;;22.50;78.20;;;;;;5099935;28;20469;-67
2021/07/30 07:02:15;;;;;;;5.30;3.70;;;22.70;77.80;;;;;;5101584;28;20552;-66
2021/07/30 07:04:42;;;;;;;4.60;3.40;;;22.70;77.50;;;;;;5105904;28;20502;-67
2021/07/30 07:07:11;;;;;;;3.33;3.03;;;22.80;77.50;;;;;;5113957;28;20522;-67
2021/07/30 07:09:38;;;;;;;4.70;3.00;;;23.00;76.90;;;;;;5107568;28;20474;-66
2021/07/30 07:12:05;;;;;;;6.10;3.70;;;23.10;76.30;;;;;;5105742;28;20474;-67
2021/07/30 07:14:32;;;;;;;5.70;3.30;;;23.30;76.10;;;;;;5113107;28;21020;-67
2021/07/30 07:16:59;;;;;;;5.20;3.70;;;23.40;75.30;;;;;;5100617;28;20462;-66
2021/07/30 07:19:26;;;;;;;5.03;3.77;;;23.40;75.20;;;;;;5106368;28;20943;-66
2021/07/30 07:21:55;;;;;;;6.47;3.87;;;23.40;74.90;;;;;;5106708;28;20472;-66
2021/07/30 07:24:23;;;;;;;3.50;2.63;;;23.40;74.40;;;;;;5100467;28;20484;-66
2021/07/30 07:26:50;;;;;;;6.87;3.30;;;23.50;74.00;;;;;;5112621;28;20509;-66
2021/07/30 07:29:17;;;;;;;4.73;3.53;;;23.60;74.10;;;;;;5100256;28;20534;-66
2021/07/30 07:31:46;;;;;;;7.00;3.30;;;23.60;74.20;;;;;;5099413;28;20465;-66
2021/07/30 07:34:13;;;;;;;3.20;2.90;;;23.70;74.00;;;;;;5105749;27;20461;-66
2021/07/30 07:36:40;;;;;;;6.17;3.60;;;23.80;73.60;;;;;;5106171;28;21002;-67
2021/07/30 07:39:07;;;;;;;5.47;4.00;;;24.00;72.70;;;;;;5101382;28;20595;-66
2021/07/30 07:41:35;;;;;;;5.37;3.10;;;24.00;72.60;;;;;;5099217;28;20465;-66
2021/07/30 07:44:02;;;;;;;5.93;3.10;;;24.10;72.80;;;;;;5104610;28;20852;-68
2021/07/30 07:46:29;;;;;;;5.17;3.27;;;24.10;72.70;;;;;;5106117;28;20468;-66
2021/07/30 07:48:56;;;;;;;7.43;4.70;;;24.10;71.70;;;;;;5101773;28;20480;-66
2021/07/30 07:51:24;;;;;;;3.83;3.23;;;24.10;71.30;;;;;;5099460;28;20853;-66
2021/07/30 07:53:51;;;;;;;4.20;3.80;;;24.10;71.50;;;;;;5103054;28;20457;-66
2021/07/30 07:56:18;;;;;;;8.57;4.73;;;24.20;71.20;;;;;;5109383;28;20946;-66
2021/07/30 07:58:46;;;;;;;6.93;4.27;;;24.20;71.10;;;;;;5102684;27;20477;-66
2021/07/30 08:01:15;;;;;;;5.53;3.80;;;24.20;71.20;;;;;;5106086;28;20461;-66
2021/07/30 08:03:44;;;;;;;6.73;3.80;;;24.10;71.20;;;;;;5099111;28;20634;-66
2021/07/30 08:06:16;;;;;;;6.80;4.67;;;24.20;70.90;;;;;;5110665;28;20469;-66
2021/07/30 08:08:43;;;;;;;4.90;3.73;;;24.20;70.10;;;;;;5100653;28;20469;-67
2021/07/30 08:11:10;;;;;;;5.27;3.80;;;24.20;70.40;;;;;;5106073;28;20469;-66
2021/07/30 08:13:37;;;;;;;4.97;3.50;;;24.30;70.30;;;;;;5109225;28;20468;-66
2021/07/30 08:16:05;;;;;;;6.27;3.60;;;24.50;70.30;;;;;;5107313;28;20465;-66
2021/07/30 08:18:32;;;;;;;7.60;3.70;;;24.60;70.30;;;;;;5104742;28;20841;-66
2021/07/30 08:21:00;;;;;;;5.80;3.50;;;24.70;69.60;;;;;;5099137;28;20472;-66
2021/07/30 08:23:27;;;;;;;9.90;5.50;;;24.80;69.20;;;;;;5099754;28;20544;-67
2021/07/30 08:25:54;;;;;;;7.13;5.33;;;25.00;69.80;;;;;;5105774;28;20461;-67
2021/07/30 08:28:21;;;;;;;3.70;3.40;;;25.00;68.90;;;;;;5105930;28;20464;-66
2021/07/30 08:30:49;;;;;;;3.87;3.47;;;25.00;68.50;;;;;;5098668;28;21001;-67
2021/07/30 08:33:17;;;;;;;5.87;3.90;;;25.20;68.20;;;;;;5112706;28;20860;-67
2021/07/30 08:35:44;;;;;;;3.90;3.50;;;25.30;67.60;;;;;;5099116;28;20547;-65
2021/07/30 08:38:20;;;;;;;10.60;3.43;;;25.30;66.20;;;;;;5098539;28;20473;-65
2021/07/30 08:40:47;;;;;;;5.80;4.10;;;25.20;65.70;;;;;;5103739;28;20504;-66
2021/07/30 08:43:15;;;;;;;5.07;4.00;;;25.20;65.50;;;;;;5105953;28;20468;-66
2021/07/30 08:45:42;;;;;;;6.47;3.63;;;25.10;65.10;;;;;;5100754;28;20556;-66
2021/07/30 08:48:09;;;;;;;7.00;4.50;;;25.20;64.60;;;;;;5098712;28;20523;-66
2021/07/30 08:50:39;;;;;;;7.00;4.50;;;25.30;64.90;;;;;;5102715;28;20546;-66
2021/07/30 08:53:07;;;;;;;6.20;4.67;;;25.30;65.50;;;;;;5105948;28;20526;-65
2021/07/30 08:55:34;;;;;;;13.97;6.03;;;25.40;64.80;;;;;;5108684;27;20461;-66
2021/07/30 08:58:01;;;;;;;6.17;4.83;;;25.40;64.60;;;;;;5112368;28;20529;-67
2021/07/30 09:00:28;;;;;;;4.83;4.23;;;25.50;65.80;;;;;;5098745;28;20962;-66
2021/07/30 09:02:56;;;;;;;5.90;4.20;;;25.50;64.00;;;;;;5101914;28;21004;-66
2021/07/30 09:05:31;;;;;;;5.57;4.47;;;25.50;63.70;;;;;;5109566;28;20484;-66
2021/07/30 09:08:01;;;;;;;4.40;3.97;;;25.50;63.70;;;;;;5111971;27;20463;-65
2021/07/30 09:10:33;;;;;;;5.70;3.97;;;25.60;64.90;;;;;;5098326;28;20537;-65
2021/07/30 09:13:18;;;;;;;7.77;3.43;;;25.60;65.20;;;;;;5111225;28;21189;-65
2021/07/30 09:15:47;;;;;;;4.43;3.80;;;25.70;63.40;;;;;;5100968;28;20491;-66
2021/07/30 09:18:31;;;;;;;4.17;3.77;;;25.70;63.90;;;;;;5113718;28;20503;-66
2021/07/30 09:21:21;;;;;;;4.20;3.60;;;25.70;63.50;;;;;;5106891;28;20465;-66
2021/07/30 09:23:52;;;;;;;8.00;4.13;;;25.80;63.20;;;;;;5103333;28;20478;-66
2021/07/30 09:26:39;;;;;;;5.03;4.40;;;25.80;62.60;;;;;;5113735;27;20795;-66
2021/07/30 09:29:08;;;;;;;8.33;3.67;;;25.80;62.10;;;;;;5106801;28;20464;-66
2021/07/30 09:31:41;;;;;;;5.90;3.63;;;25.90;62.30;;;;;;5112417;27;20501;-66
2021/07/30 09:34:12;;;;;;;8.70;4.13;;;25.90;62.20;;;;;;5115489;28;20509;-66
2021/07/30 09:36:43;;;;;;;5.93;4.30;;;25.90;62.00;;;;;;5102112;28;20526;-67
2021/07/30 09:39:12;;;;;;;7.30;4.00;;;25.90;60.70;;;;;;5114991;28;20836;-67
2021/07/30 09:41:39;;;;;;;4.90;3.07;;;25.90;60.30;;;;;;5102685;28;20525;-66
2021/07/30 09:44:07;;;;;;;4.07;3.67;;;26.00;60.60;;;;;;5101344;28;20506;-66
2021/07/30 09:46:34;;;;;;;5.20;3.87;;;26.00;60.20;;;;;;5107138;28;20473;-66
2021/07/30 09:49:01;;;;;;;6.00;4.03;;;26.00;60.10;;;;;;5107987;28;20464;-66
2021/07/30 09:51:29;;;;;;;4.33;3.20;;;25.90;61.10;;;;;;5103562;28;20468;-66
2021/07/30 09:53:57;;;;;;;4.90;4.40;;;25.90;60.40;;;;;;5099438;28;20538;-66
2021/07/30 09:56:27;;;;;;;3.33;3.03;;;25.90;60.70;;;;;;5105101;27;20527;-67
2021/07/30 09:58:57;;;;;;;2.60;2.40;;;25.90;60.70;;;;;;5110977;28;20814;-66
2021/07/30 10:01:24;;;;;;;6.23;3.40;;;25.90;62.20;;;;;;5105934;27;20536;-66
2021/07/30 10:03:54;;;;;;;3.90;2.47;;;25.90;60.20;;;;;;5096537;28;20549;-66
2021/07/30 10:06:21;;;;;;;5.97;3.47;;;25.80;60.50;;;;;;5107083;28;20544;-67
2021/07/30 10:08:48;;;;;;;7.03;3.70;;;25.80;60.40;;;;;;5114496;27;20491;-66
2021/07/30 10:11:15;;;;;;;6.50;3.33;;;25.80;61.60;;;;;;5102198;28;20497;-66
2021/07/30 10:13:49;;;;;;;9.80;3.30;;;25.80;60.90;;;;;;5102229;28;20517;-66
2021/07/30 10:16:21;;;;;;;3.27;2.97;;;25.90;61.10;;;;;;5101010;27;20518;-66
2021/07/30 10:18:49;;;;;;;4.53;2.63;;;25.90;61.10;;;;;;5106543;28;20534;-66
2021/07/30 10:21:22;;;;;;;4.90;2.93;;;25.90;61.60;;;;;;5107564;28;20800;-66
2021/07/30 10:23:52;;;;;;;6.00;2.97;;;26.00;60.10;;;;;;5104213;28;20833;-65
2021/07/30 10:26:26;;;;;;;4.00;2.87;;;25.90;60.00;;;;;;5100466;28;20457;-66
2021/07/30 10:28:59;;;;;;;7.60;2.87;;;25.90;60.70;;;;;;5103309;28;20477;-66
2021/07/30 10:31:50;;;;;;;7.73;3.00;;;25.90;61.50;;;;;;5113094;27;20990;-66
2021/07/30 10:34:18;;;;;;;3.40;2.83;;;25.80;60.90;;;;;;5111742;28;20457;-66
2021/07/30 10:36:45;;;;;;;4.27;3.03;;;25.70;60.90;;;;;;5103710;28;20966;-66
2021/07/30 10:39:15;;;;;;;7.97;3.60;;;25.70;61.60;;;;;;5100296;27;20470;-67
2021/07/30 10:42:04;;;;;;;3.90;3.43;;;25.70;62.20;;;;;;5104557;27;20605;-66
2021/07/30 10:44:32;;;;;;;3.27;2.90;;;25.70;62.10;;;;;;5107094;28;20457;-66
2021/07/30 10:47:21;;;;;;;5.37;3.20;;;25.80;61.10;;;;;;5107426;28;20481;-66
2021/07/30 10:49:47;;;;;;;4.70;3.17;;;25.80;60.80;;;;;;5103795;27;21003;-65
2021/07/30 10:52:30;;;;;;;5.53;3.73;;;25.80;60.80;;;;;;5111284;27;20473;-66
2021/07/30 10:54:58;;;;;;;5.57;3.00;;;25.80;60.40;;;;;;5105334;27;20476;-66
2021/07/30 10:57:50;;;;;;;7.33;3.80;;;25.80;60.60;;;;;;5114186;28;20821;-66
2021/07/30 11:00:19;;;;;;;5.63;3.00;;;25.90;62.20;;;;;;5100089;28;21094;-66
2021/07/30 11:03:06;;;;;;;4.20;3.50;;;25.90;60.50;;;;;;5105002;28;20545;-67
2021/07/30 11:06:08;;;;;;;4.37;3.00;;;25.80;60.40;;;;;;5099173;28;20563;-65
2021/07/30 11:09:10;;;;;;;4.07;3.20;;;25.80;61.20;;;;;;5109914;27;20938;-66
2021/07/30 11:11:37;;;;;;;6.20;2.93;;;25.80;61.30;;;;;;5106870;28;20449;-66
2021/07/30 11:14:07;;;;;;;3.70;3.13;;;25.80;61.00;;;;;;5105257;28;20470;-66
2021/07/30 11:16:35;;;;;;;3.70;3.27;;;25.90;60.90;;;;;;5106801;28;20468;-67
2021/07/30 11:19:02;;;;;;;5.10;3.10;;;25.90;64.00;;;;;;5103069;28;20468;-67
2021/07/30 11:21:29;;;;;;;4.90;2.90;;;25.80;61.30;;;;;;5099647;27;20477;-66
2021/07/30 11:23:56;;;;;;;4.37;2.60;;;25.90;60.80;;;;;;5104002;27;20489;-67
2021/07/30 11:26:23;;;;;;;5.20;2.37;;;25.80;61.20;;;;;;5106354;28;20518;-66
2021/07/30 11:28:52;;;;;;;2.90;2.60;;;25.80;60.60;;;;;;5103326;28;20533;-67
2021/07/30 11:31:19;;;;;;;6.10;3.03;;;25.90;60.40;;;;;;5103671;27;20472;-66
2021/07/30 11:33:47;;;;;;;3.30;2.93;;;25.90;60.90;;;;;;5113529;28;20473;-67
2021/07/30 11:36:15;;;;;;;3.73;2.97;;;25.90;60.50;;;;;;5099966;28;20830;-67
2021/07/30 11:38:49;;;;;;;3.03;2.40;;;26.00;60.90;;;;;;5100772;28;20458;-67
2021/07/30 11:41:16;;;;;;;5.27;3.20;;;26.00;61.70;;;;;;5106378;28;20465;-67
2021/07/30 11:44:02;;;;;;;3.60;3.07;;;26.10;62.50;;;;;;5105463;28;21209;-67
2021/07/30 11:46:31;;;;;;;3.50;2.93;;;26.10;61.30;;;;;;5101434;28;20783;-67
2021/07/30 11:49:00;;;;;;;4.50;2.93;;;26.20;60.70;;;;;;5110628;28;20510;-67
2021/07/30 11:51:27;;;;;;;3.73;2.77;;;26.20;62.10;;;;;;5101927;28;20525;-67
2021/07/30 11:53:56;;;;;;;4.30;2.93;;;26.30;62.40;;;;;;5099366;28;20816;-68
2021/07/30 11:56:23;;;;;;;2.70;2.17;;;26.30;61.00;;;;;;5099125;28;20479;-67
2021/07/30 11:58:57;;;;;;;2.67;2.37;;;26.40;63.20;;;;;;5113051;28;20495;-68
2021/07/30 12:01:24;;;;;;;3.50;2.70;;;26.50;64.80;;;;;;5098791;28;20464;-68
2021/07/30 12:04:08;;;;;;;3.90;2.73;;;26.60;63.60;;;;;;5099821;28;20544;-68
2021/07/30 12:06:40;;;;;;;3.27;2.87;;;26.60;60.50;;;;;;5101379;28;20783;-65
2021/07/30 12:09:09;;;;;;;3.30;2.50;;;26.60;60.30;;;;;;5112841;28;20946;-67
2021/07/30 12:11:38;;;;;;;4.43;2.80;;;26.60;60.40;;;;;;5102174;28;20477;-66
2021/07/30 12:14:08;;;;;;;4.33;2.50;;;26.60;60.30;;;;;;5099274;28;20525;-67
2021/07/30 12:16:36;;;;;;;2.90;2.20;;;26.60;60.00;;;;;;5100957;28;20477;-67
2021/07/30 12:19:03;;;;;;;4.30;2.83;;;26.60;60.70;;;;;;5105978;28;20543;-66
2021/07/30 12:21:31;;;;;;;7.13;2.80;;;26.60;60.20;;;;;;5103988;28;20857;-67
2021/07/30 12:24:05;;;;;;;3.57;2.43;;;26.60;60.20;;;;;;5099213;28;20868;-67
2021/07/30 12:26:33;;;;;;;4.30;2.33;;;26.60;60.80;;;;;;5099307;28;21021;-66
2021/07/30 12:29:00;;;;;;;2.57;2.37;;;26.70;60.20;;;;;;5098934;28;20465;-66
2021/07/30 12:31:27;;;;;;;3.33;2.77;;;26.70;61.40;;;;;;5112213;28;20465;-67
2021/07/30 12:34:15;;;;;;;3.43;2.90;;;26.70;62.30;;;;;;5106132;28;20466;-67
2021/07/30 12:36:44;;;;;;;3.40;2.80;;;26.70;60.50;;;;;;5105463;28;20487;-67
2021/07/30 12:39:12;;;;;;;5.33;2.70;;;26.70;60.20;;;;;;5102443;28;20473;-67
2021/07/30 12:41:39;;;;;;;5.13;2.60;;;26.70;60.60;;;;;;5098357;28;20802;-66
2021/07/30 12:44:10;;;;;;;3.40;3.03;;;26.70;60.80;;;;;;5102029;28;21029;-67
2021/07/30 12:46:39;;;;;;;2.83;2.53;;;26.70;59.90;;;;;;5105386;28;21188;-67
2021/07/30 12:49:07;;;;;;;3.97;2.40;;;26.70;59.80;;;;;;5103515;28;20806;-67
2021/07/30 12:51:35;;;;;;;4.67;2.87;;;26.70;61.20;;;;;;5101858;28;20545;-67
2021/07/30 12:54:11;;;;;;;3.37;2.80;;;26.70;61.50;;;;;;5108896;27;20864;-67